Queens Village, New York
Current Conditions -  °F | °C
As of 8:51 PM on Monday 20 Oct 2014 (Local Time) from KJFK Reporting Station
Broken Clouds Broken Clouds  
Wind Chill: 59°   Ceiling: 25000
Heat Index: 59°   Visibility: 10mi
Dew Point: 44°   Wind: 9mph
Humidity: 58%   Direction: 210°SSW
Pressure: 30"   Gusts: NA
Location:  40.73°N, 73.74°W
Report Text: KJFK 210051Z 21008KT 10SM SCT190 BKN250 15/07 A3000 RMK AO2 SLP157 T01500067
Loading
Personal Weather Stations






























Interactive Weather Map New forecast layout! Learn more

10-Day Weather Forecast

Advertisements
Track Severe Weather on mobile